sensor_id;sensor_type;location;lat;lon;timestamp;P1;durP1;ratioP1;P2;durP2;ratioP2
31061;SDS011;17724;53.546;9.974;2023-03-01T00:00:21;11.00;;;6.77;;
31061;SDS011;17724;53.546;9.974;2023-03-01T00:04:22;12.80;;;7.70;;
31061;SDS011;17724;53.546;9.974;2023-03-01T00:08:22;12.63;;;6.63;;
31061;SDS011;17724;53.546;9.974;2023-03-01T00:12:24;12.43;;;6.93;;
31061;SDS011;17724;53.546;9.974;2023-03-01T00:16:26;14.63;;;7.27;;
31061;SDS011;17724;53.546;9.974;2023-03-01T00:20:29;11.20;;;6.13;;
31061;SDS011;17724;53.546;9.974;2023-03-01T00:24:29;11.90;;;6.87;;
31061;SDS011;17724;53.546;9.974;2023-03-01T00:28:30;15.63;;;7.40;;
31061;SDS011;17724;53.546;9.974;2023-03-01T00:32:31;11.00;;;5.90;;
31061;SDS011;17724;53.546;9.974;2023-03-01T00:36:33;13.23;;;6.90;;
31061;SDS011;17724;53.546;9.974;2023-03-01T00:40:36;12.37;;;6.90;;
31061;SDS011;17724;53.546;9.974;2023-03-01T00:44:36;13.40;;;7.03;;
31061;SDS011;17724;53.546;9.974;2023-03-01T00:48:37;10.57;;;5.83;;
31061;SDS011;17724;53.546;9.974;2023-03-01T00:52:38;11.90;;;6.10;;
31061;SDS011;17724;53.546;9.974;2023-03-01T00:56:38;14.40;;;6.43;;
31061;SDS011;17724;53.546;9.974;2023-03-01T01:00:39;13.40;;;6.13;;
31061;SDS011;17724;53.546;9.974;2023-03-01T01:04:39;12.43;;;6.50;;
31061;SDS011;17724;53.546;9.974;2023-03-01T01:08:40;11.67;;;6.27;;
31061;SDS011;17724;53.546;9.974;2023-03-01T01:12:40;12.90;;;7.10;;
31061;SDS011;17724;53.546;9.974;2023-03-01T01:16:41;11.40;;;6.87;;
31061;SDS011;17724;53.546;9.974;2023-03-01T01:20:41;12.60;;;5.83;;
31061;SDS011;17724;53.546;9.974;2023-03-01T01:24:42;15.03;;;7.17;;
31061;SDS011;17724;53.546;9.974;2023-03-01T01:28:43;12.83;;;6.93;;
31061;SDS011;17724;53.546;9.974;2023-03-01T01:32:44;10.77;;;5.50;;
31061;SDS011;17724;53.546;9.974;2023-03-01T01:36:48;13.70;;;6.70;;
31061;SDS011;17724;53.546;9.974;2023-03-01T01:40:50;12.10;;;6.10;;
31061;SDS011;17724;53.546;9.974;2023-03-01T01:53:35;11.20;;;6.70;;
31061;SDS011;17724;53.546;9.974;2023-03-01T01:57:39;10.80;;;5.40;;
31061;SDS011;17724;53.546;9.974;2023-03-01T02:01:43;13.03;;;5.63;;
31061;SDS011;17724;53.546;9.974;2023-03-01T02:09:53;9.67;;;4.17;;
31061;SDS011;17724;53.546;9.974;2023-03-01T02:13:54;11.70;;;3.70;;
31061;SDS011;17724;53.546;9.974;2023-03-01T02:17:55;8.77;;;3.97;;
31061;SDS011;17724;53.546;9.974;2023-03-01T02:22:00;8.67;;;3.67;;
31061;SDS011;17724;53.546;9.974;2023-03-01T02:30:44;10.67;;;4.00;;
31061;SDS011;17724;53.546;9.974;2023-03-01T02:35:05;10.97;;;3.70;;
31061;SDS011;17724;53.546;9.974;2023-03-01T02:39:07;10.63;;;3.80;;
31061;SDS011;17724;53.546;9.974;2023-03-01T02:43:15;7.60;;;2.93;;
31061;SDS011;17724;53.546;9.974;2023-03-01T02:47:17;7.97;;;3.00;;
31061;SDS011;17724;53.546;9.974;2023-03-01T02:51:41;8.67;;;3.00;;
31061;SDS011;17724;53.546;9.974;2023-03-01T02:55:52;8.70;;;3.23;;
31061;SDS011;17724;53.546;9.974;2023-03-01T02:59:54;8.70;;;3.10;;
31061;SDS011;17724;53.546;9.974;2023-03-01T03:03:56;8.17;;;2.80;;
31061;SDS011;17724;53.546;9.974;2023-03-01T03:07:58;7.60;;;2.80;;
31061;SDS011;17724;53.546;9.974;2023-03-01T03:12:00;8.13;;;2.83;;
31061;SDS011;17724;53.546;9.974;2023-03-01T03:16:01;9.20;;;3.37;;
31061;SDS011;17724;53.546;9.974;2023-03-01T03:20:04;7.80;;;3.03;;
31061;SDS011;17724;53.546;9.974;2023-03-01T03:24:05;8.23;;;3.20;;
31061;SDS011;17724;53.546;9.974;2023-03-01T03:28:06;9.50;;;3.03;;
31061;SDS011;17724;53.546;9.974;2023-03-01T03:32:10;9.40;;;3.20;;
31061;SDS011;17724;53.546;9.974;2023-03-01T03:36:14;9.63;;;3.43;;
31061;SDS011;17724;53.546;9.974;2023-03-01T03:40:17;8.80;;;4.00;;
31061;SDS011;17724;53.546;9.974;2023-03-01T03:44:18;9.67;;;3.23;;
31061;SDS011;17724;53.546;9.974;2023-03-01T03:48:19;8.90;;;3.20;;
31061;SDS011;17724;53.546;9.974;2023-03-01T03:52:20;7.40;;;2.80;;
31061;SDS011;17724;53.546;9.974;2023-03-01T03:56:20;9.50;;;3.57;;
31061;SDS011;17724;53.546;9.974;2023-03-01T04:00:21;10.37;;;3.10;;
31061;SDS011;17724;53.546;9.974;2023-03-01T04:04:23;7.80;;;3.00;;
31061;SDS011;17724;53.546;9.974;2023-03-01T04:08:24;9.60;;;3.60;;
31061;SDS011;17724;53.546;9.974;2023-03-01T04:12:25;9.50;;;3.30;;
31061;SDS011;17724;53.546;9.974;2023-03-01T04:16:25;8.07;;;2.63;;
31061;SDS011;17724;53.546;9.974;2023-03-01T04:20:27;7.87;;;2.80;;
31061;SDS011;17724;53.546;9.974;2023-03-01T04:24:29;7.90;;;3.10;;
31061;SDS011;17724;53.546;9.974;2023-03-01T04:28:30;10.57;;;3.10;;
31061;SDS011;17724;53.546;9.974;2023-03-01T04:32:40;9.57;;;3.70;;
31061;SDS011;17724;53.546;9.974;2023-03-01T04:36:41;7.70;;;3.00;;
31061;SDS011;17724;53.546;9.974;2023-03-01T04:40:41;8.33;;;3.27;;
31061;SDS011;17724;53.546;9.974;2023-03-01T04:44:43;10.03;;;3.30;;
31061;SDS011;17724;53.546;9.974;2023-03-01T04:48:44;9.87;;;3.30;;
31061;SDS011;17724;53.546;9.974;2023-03-01T04:52:46;8.60;;;3.50;;
31061;SDS011;17724;53.546;9.974;2023-03-01T04:56:47;7.77;;;2.90;;
31061;SDS011;17724;53.546;9.974;2023-03-01T05:00:48;8.30;;;2.80;;
31061;SDS011;17724;53.546;9.974;2023-03-01T05:04:48;9.53;;;3.30;;
31061;SDS011;17724;53.546;9.974;2023-03-01T05:08:49;8.00;;;3.03;;
31061;SDS011;17724;53.546;9.974;2023-03-01T05:12:49;9.97;;;3.37;;
31061;SDS011;17724;53.546;9.974;2023-03-01T05:16:55;8.60;;;3.53;;
31061;SDS011;17724;53.546;9.974;2023-03-01T05:20:56;8.17;;;2.97;;
31061;SDS011;17724;53.546;9.974;2023-03-01T05:25:04;10.57;;;3.30;;
31061;SDS011;17724;53.546;9.974;2023-03-01T05:29:05;8.17;;;3.07;;
31061;SDS011;17724;53.546;9.974;2023-03-01T05:33:06;8.80;;;3.20;;
31061;SDS011;17724;53.546;9.974;2023-03-01T05:37:13;9.03;;;3.17;;
31061;SDS011;17724;53.546;9.974;2023-03-01T05:41:14;7.83;;;3.00;;
31061;SDS011;17724;53.546;9.974;2023-03-01T05:45:17;8.13;;;3.07;;
31061;SDS011;17724;53.546;9.974;2023-03-01T05:49:18;9.57;;;3.50;;
31061;SDS011;17724;53.546;9.974;2023-03-01T05:53:19;8.60;;;3.70;;
31061;SDS011;17724;53.546;9.974;2023-03-01T05:57:23;9.10;;;3.63;;
31061;SDS011;17724;53.546;9.974;2023-03-01T06:01:23;9.73;;;4.07;;
31061;SDS011;17724;53.546;9.974;2023-03-01T06:05:24;10.70;;;3.70;;
31061;SDS011;17724;53.546;9.974;2023-03-01T06:09:24;8.23;;;3.70;;
31061;SDS011;17724;53.546;9.974;2023-03-01T06:13:26;8.00;;;3.23;;
31061;SDS011;17724;53.546;9.974;2023-03-01T06:17:28;8.00;;;3.47;;
31061;SDS011;17724;53.546;9.974;2023-03-01T06:21:30;9.50;;;3.80;;
31061;SDS011;17724;53.546;9.974;2023-03-01T06:25:30;8.53;;;3.30;;
31061;SDS011;17724;53.546;9.974;2023-03-01T06:29:31;10.00;;;3.97;;
31061;SDS011;17724;53.546;9.974;2023-03-01T06:33:31;9.47;;;4.40;;
31061;SDS011;17724;53.546;9.974;2023-03-01T06:37:32;9.47;;;4.13;;
31061;SDS011;17724;53.546;9.974;2023-03-01T06:41:33;10.87;;;3.80;;
31061;SDS011;17724;53.546;9.974;2023-03-01T06:45:33;8.67;;;3.60;;
31061;SDS011;17724;53.546;9.974;2023-03-01T06:49:34;8.00;;;2.83;;
31061;SDS011;17724;53.546;9.974;2023-03-01T06:53:34;9.60;;;4.30;;
31061;SDS011;17724;53.546;9.974;2023-03-01T06:57:35;11.47;;;6.80;;
31061;SDS011;17724;53.546;9.974;2023-03-01T07:01:36;12.37;;;5.60;;
31061;SDS011;17724;53.546;9.974;2023-03-01T07:05:36;13.93;;;4.90;;
31061;SDS011;17724;53.546;9.974;2023-03-01T07:09:37;10.00;;;4.97;;
31061;SDS011;17724;53.546;9.974;2023-03-01T07:13:37;9.43;;;4.60;;
31061;SDS011;17724;53.546;9.974;2023-03-01T07:17:38;8.93;;;4.53;;
31061;SDS011;17724;53.546;9.974;2023-03-01T07:21:38;11.30;;;4.77;;
31061;SDS011;17724;53.546;9.974;2023-03-01T07:25:39;10.53;;;6.10;;
31061;SDS011;17724;53.546;9.974;2023-03-01T07:29:39;15.20;;;6.63;;
31061;SDS011;17724;53.546;9.974;2023-03-01T07:33:40;12.77;;;5.60;;
31061;SDS011;17724;53.546;9.974;2023-03-01T07:37:41;10.90;;;5.30;;
31061;SDS011;17724;53.546;9.974;2023-03-01T07:41:41;12.67;;;6.87;;
31061;SDS011;17724;53.546;9.974;2023-03-01T07:45:42;12.60;;;6.27;;
31061;SDS011;17724;53.546;9.974;2023-03-01T07:49:42;11.93;;;6.43;;
31061;SDS011;17724;53.546;9.974;2023-03-01T07:53:45;14.00;;;6.30;;
31061;SDS011;17724;53.546;9.974;2023-03-01T07:57:47;16.37;;;7.80;;
31061;SDS011;17724;53.546;9.974;2023-03-01T08:01:48;16.60;;;7.13;;
31061;SDS011;17724;53.546;9.974;2023-03-01T08:05:48;14.03;;;6.83;;
31061;SDS011;17724;53.546;9.974;2023-03-01T08:09:49;12.60;;;6.10;;
31061;SDS011;17724;53.546;9.974;2023-03-01T08:13:49;13.30;;;6.90;;
31061;SDS011;17724;53.546;9.974;2023-03-01T08:17:50;11.53;;;5.90;;
31061;SDS011;17724;53.546;9.974;2023-03-01T08:21:50;12.47;;;6.57;;
31061;SDS011;17724;53.546;9.974;2023-03-01T08:25:51;11.57;;;5.93;;
31061;SDS011;17724;53.546;9.974;2023-03-01T08:29:53;14.00;;;6.37;;
31061;SDS011;17724;53.546;9.974;2023-03-01T08:33:58;13.00;;;6.60;;
31061;SDS011;17724;53.546;9.974;2023-03-01T08:38:00;12.60;;;5.80;;
31061;SDS011;17724;53.546;9.974;2023-03-01T08:42:01;14.33;;;7.60;;
31061;SDS011;17724;53.546;9.974;2023-03-01T08:46:01;12.67;;;7.20;;
31061;SDS011;17724;53.546;9.974;2023-03-01T08:50:02;13.10;;;7.60;;
31061;SDS011;17724;53.546;9.974;2023-03-01T08:54:04;13.63;;;7.10;;
31061;SDS011;17724;53.546;9.974;2023-03-01T08:58:06;14.63;;;7.50;;
31061;SDS011;17724;53.546;9.974;2023-03-01T09:02:14;11.20;;;6.50;;
31061;SDS011;17724;53.546;9.974;2023-03-01T09:06:16;13.63;;;7.10;;
31061;SDS011;17724;53.546;9.974;2023-03-01T09:10:17;10.37;;;6.20;;
31061;SDS011;17724;53.546;9.974;2023-03-01T09:14:18;12.47;;;6.23;;
31061;SDS011;17724;53.546;9.974;2023-03-01T09:18:18;13.57;;;6.83;;
31061;SDS011;17724;53.546;9.974;2023-03-01T09:22:19;11.07;;;6.37;;
31061;SDS011;17724;53.546;9.974;2023-03-01T09:26:20;15.30;;;6.90;;
31061;SDS011;17724;53.546;9.974;2023-03-01T09:30:22;16.40;;;6.60;;
31061;SDS011;17724;53.546;9.974;2023-03-01T09:34:24;12.77;;;7.63;;
31061;SDS011;17724;53.546;9.974;2023-03-01T09:38:24;12.30;;;6.40;;
31061;SDS011;17724;53.546;9.974;2023-03-01T09:42:25;14.10;;;6.67;;
31061;SDS011;17724;53.546;9.974;2023-03-01T09:46:29;16.93;;;7.20;;
31061;SDS011;17724;53.546;9.974;2023-03-01T09:50:36;18.30;;;10.93;;
31061;SDS011;17724;53.546;9.974;2023-03-01T09:54:41;22.40;;;12.10;;
31061;SDS011;17724;53.546;9.974;2023-03-01T10:03:17;18.07;;;11.27;;
31061;SDS011;17724;53.546;9.974;2023-03-01T10:11:54;15.43;;;9.77;;
31061;SDS011;17724;53.546;9.974;2023-03-01T10:15:57;14.70;;;8.93;;
31061;SDS011;17724;53.546;9.974;2023-03-01T10:24:19;15.33;;;9.90;;
31061;SDS011;17724;53.546;9.974;2023-03-01T10:28:29;14.37;;;10.07;;
31061;SDS011;17724;53.546;9.974;2023-03-01T10:32:50;16.93;;;10.73;;
31061;SDS011;17724;53.546;9.974;2023-03-01T10:36:55;15.23;;;10.30;;
31061;SDS011;17724;53.546;9.974;2023-03-01T10:41:00;15.30;;;9.43;;
31061;SDS011;17724;53.546;9.974;2023-03-01T10:45:41;14.13;;;8.90;;
31061;SDS011;17724;53.546;9.974;2023-03-01T10:49:36;13.50;;;8.47;;
31061;SDS011;17724;53.546;9.974;2023-03-01T10:53:37;15.27;;;9.33;;
31061;SDS011;17724;53.546;9.974;2023-03-01T10:57:42;20.33;;;9.80;;
31061;SDS011;17724;53.546;9.974;2023-03-01T11:01:42;15.60;;;9.43;;
31061;SDS011;17724;53.546;9.974;2023-03-01T11:05:57;15.60;;;9.50;;
31061;SDS011;17724;53.546;9.974;2023-03-01T11:10:01;14.07;;;8.20;;
31061;SDS011;17724;53.546;9.974;2023-03-01T11:18:22;14.57;;;8.90;;
31061;SDS011;17724;53.546;9.974;2023-03-01T11:22:23;13.17;;;8.30;;
31061;SDS011;17724;53.546;9.974;2023-03-01T11:26:23;14.07;;;9.07;;
31061;SDS011;17724;53.546;9.974;2023-03-01T11:30:28;13.50;;;8.57;;
31061;SDS011;17724;53.546;9.974;2023-03-01T11:34:44;13.90;;;8.63;;
31061;SDS011;17724;53.546;9.974;2023-03-01T11:38:49;14.10;;;8.67;;
31061;SDS011;17724;53.546;9.974;2023-03-01T11:56:24;13.70;;;8.17;;
31061;SDS011;17724;53.546;9.974;2023-03-01T12:26:36;11.73;;;6.13;;
31061;SDS011;17724;53.546;9.974;2023-03-01T12:31:10;10.10;;;5.47;;
31061;SDS011;17724;53.546;9.974;2023-03-01T12:40:15;11.20;;;6.00;;
31061;SDS011;17724;53.546;9.974;2023-03-01T12:45:31;10.80;;;5.20;;
31061;SDS011;17724;53.546;9.974;2023-03-01T12:49:02;11.63;;;6.00;;
31061;SDS011;17724;53.546;9.974;2023-03-01T12:53:04;12.03;;;6.33;;
31061;SDS011;17724;53.546;9.974;2023-03-01T13:06:04;10.70;;;6.00;;
31061;SDS011;17724;53.546;9.974;2023-03-01T13:18:27;11.30;;;6.10;;
31061;SDS011;17724;53.546;9.974;2023-03-01T13:22:30;12.97;;;7.13;;
31061;SDS011;17724;53.546;9.974;2023-03-01T13:26:33;11.60;;;6.67;;
31061;SDS011;17724;53.546;9.974;2023-03-01T13:31:09;11.33;;;6.73;;
31061;SDS011;17724;53.546;9.974;2023-03-01T13:39:31;10.93;;;6.20;;
31061;SDS011;17724;53.546;9.974;2023-03-01T13:43:40;11.83;;;6.43;;
31061;SDS011;17724;53.546;9.974;2023-03-01T13:47:43;11.20;;;5.80;;
31061;SDS011;17724;53.546;9.974;2023-03-01T13:51:46;11.77;;;6.77;;
31061;SDS011;17724;53.546;9.974;2023-03-01T13:55:50;10.43;;;6.27;;
31061;SDS011;17724;53.546;9.974;2023-03-01T13:59:54;11.40;;;6.10;;
31061;SDS011;17724;53.546;9.974;2023-03-01T14:03:55;19.77;;;13.60;;
31061;SDS011;17724;53.546;9.974;2023-03-01T14:07:56;13.80;;;8.20;;
31061;SDS011;17724;53.546;9.974;2023-03-01T14:20:27;11.77;;;7.60;;
31061;SDS011;17724;53.546;9.974;2023-03-01T14:24:39;10.00;;;5.37;;
31061;SDS011;17724;53.546;9.974;2023-03-01T14:28:44;10.67;;;5.83;;
31061;SDS011;17724;53.546;9.974;2023-03-01T14:32:52;11.83;;;5.60;;
31061;SDS011;17724;53.546;9.974;2023-03-01T14:37:09;12.83;;;8.27;;
31061;SDS011;17724;53.546;9.974;2023-03-01T14:41:11;17.67;;;11.30;;
31061;SDS011;17724;53.546;9.974;2023-03-01T14:45:15;13.30;;;8.23;;
31061;SDS011;17724;53.546;9.974;2023-03-01T14:49:22;13.67;;;7.67;;
31061;SDS011;17724;53.546;9.974;2023-03-01T14:53:26;12.17;;;7.53;;
31061;SDS011;17724;53.546;9.974;2023-03-01T14:57:29;11.37;;;6.40;;
31061;SDS011;17724;53.546;9.974;2023-03-01T15:01:29;14.10;;;9.57;;
31061;SDS011;17724;53.546;9.974;2023-03-01T15:05:31;12.73;;;8.03;;
31061;SDS011;17724;53.546;9.974;2023-03-01T15:09:33;16.10;;;5.13;;
31061;SDS011;17724;53.546;9.974;2023-03-01T15:13:36;12.23;;;7.00;;
31061;SDS011;17724;53.546;9.974;2023-03-01T15:17:40;14.70;;;9.77;;
31061;SDS011;17724;53.546;9.974;2023-03-01T15:21:41;11.63;;;6.17;;
31061;SDS011;17724;53.546;9.974;2023-03-01T15:25:47;11.60;;;7.00;;
31061;SDS011;17724;53.546;9.974;2023-03-01T15:29:59;13.60;;;8.43;;
31061;SDS011;17724;53.546;9.974;2023-03-01T15:38:53;17.33;;;6.70;;
31061;SDS011;17724;53.546;9.974;2023-03-01T15:43:06;16.23;;;9.07;;
31061;SDS011;17724;53.546;9.974;2023-03-01T15:47:41;20.67;;;12.40;;
31061;SDS011;17724;53.546;9.974;2023-03-01T15:51:54;11.93;;;7.50;;
31061;SDS011;17724;53.546;9.974;2023-03-01T15:55:55;13.70;;;8.90;;
31061;SDS011;17724;53.546;9.974;2023-03-01T15:59:55;13.47;;;7.20;;
31061;SDS011;17724;53.546;9.974;2023-03-01T16:03:56;10.50;;;5.87;;
31061;SDS011;17724;53.546;9.974;2023-03-01T16:07:58;14.07;;;8.07;;
31061;SDS011;17724;53.546;9.974;2023-03-01T16:11:59;13.87;;;8.50;;
31061;SDS011;17724;53.546;9.974;2023-03-01T16:15:59;14.00;;;8.30;;
31061;SDS011;17724;53.546;9.974;2023-03-01T16:20:00;15.77;;;11.47;;
31061;SDS011;17724;53.546;9.974;2023-03-01T16:24:00;18.17;;;11.67;;
31061;SDS011;17724;53.546;9.974;2023-03-01T16:28:01;15.70;;;10.97;;
31061;SDS011;17724;53.546;9.974;2023-03-01T16:32:05;16.20;;;10.80;;
31061;SDS011;17724;53.546;9.974;2023-03-01T16:36:11;15.43;;;10.03;;
31061;SDS011;17724;53.546;9.974;2023-03-01T16:40:16;17.30;;;11.27;;
31061;SDS011;17724;53.546;9.974;2023-03-01T16:44:20;17.40;;;11.50;;
31061;SDS011;17724;53.546;9.974;2023-03-01T16:48:21;14.50;;;9.50;;
31061;SDS011;17724;53.546;9.974;2023-03-01T16:52:22;19.60;;;10.87;;
31061;SDS011;17724;53.546;9.974;2023-03-01T16:56:22;31.90;;;21.20;;
31061;SDS011;17724;53.546;9.974;2023-03-01T17:00:23;48.57;;;33.03;;
31061;SDS011;17724;53.546;9.974;2023-03-01T17:04:24;26.63;;;18.80;;
31061;SDS011;17724;53.546;9.974;2023-03-01T17:08:24;15.53;;;9.13;;
31061;SDS011;17724;53.546;9.974;2023-03-01T17:12:25;42.63;;;38.63;;
31061;SDS011;17724;53.546;9.974;2023-03-01T17:16:25;71.37;;;58.80;;
31061;SDS011;17724;53.546;9.974;2023-03-01T17:20:26;40.77;;;29.47;;
31061;SDS011;17724;53.546;9.974;2023-03-01T17:24:27;34.33;;;23.50;;
31061;SDS011;17724;53.546;9.974;2023-03-01T17:28:30;24.00;;;13.00;;
31061;SDS011;17724;53.546;9.974;2023-03-01T17:32:32;30.03;;;21.00;;
31061;SDS011;17724;53.546;9.974;2023-03-01T17:36:32;36.70;;;29.87;;
31061;SDS011;17724;53.546;9.974;2023-03-01T17:40:41;19.37;;;13.30;;
31061;SDS011;17724;53.546;9.974;2023-03-01T17:44:42;36.87;;;30.20;;
31061;SDS011;17724;53.546;9.974;2023-03-01T17:48:42;24.37;;;18.63;;
31061;SDS011;17724;53.546;9.974;2023-03-01T17:52:43;18.83;;;14.47;;
31061;SDS011;17724;53.546;9.974;2023-03-01T17:56:43;36.17;;;24.53;;
31061;SDS011;17724;53.546;9.974;2023-03-01T18:00:44;47.43;;;36.03;;
31061;SDS011;17724;53.546;9.974;2023-03-01T18:04:44;44.90;;;35.33;;
31061;SDS011;17724;53.546;9.974;2023-03-01T18:08:45;17.00;;;11.50;;
31061;SDS011;17724;53.546;9.974;2023-03-01T18:12:47;15.33;;;10.13;;
31061;SDS011;17724;53.546;9.974;2023-03-01T18:16:48;17.40;;;11.23;;
31061;SDS011;17724;53.546;9.974;2023-03-01T18:20:54;16.80;;;13.20;;
31061;SDS011;17724;53.546;9.974;2023-03-01T18:24:58;14.90;;;10.97;;
31061;SDS011;17724;53.546;9.974;2023-03-01T18:28:59;20.40;;;13.00;;
31061;SDS011;17724;53.546;9.974;2023-03-01T18:33:02;19.73;;;15.70;;
31061;SDS011;17724;53.546;9.974;2023-03-01T18:37:03;14.27;;;9.17;;
31061;SDS011;17724;53.546;9.974;2023-03-01T18:41:03;30.23;;;23.70;;
31061;SDS011;17724;53.546;9.974;2023-03-01T18:45:04;97.13;;;73.00;;
31061;SDS011;17724;53.546;9.974;2023-03-01T18:49:05;24.47;;;18.90;;
31061;SDS011;17724;53.546;9.974;2023-03-01T18:53:07;18.20;;;13.10;;
31061;SDS011;17724;53.546;9.974;2023-03-01T18:57:08;19.23;;;14.37;;
31061;SDS011;17724;53.546;9.974;2023-03-01T19:01:16;25.40;;;20.60;;
31061;SDS011;17724;53.546;9.974;2023-03-01T19:05:21;22.43;;;17.17;;
31061;SDS011;17724;53.546;9.974;2023-03-01T19:09:22;19.80;;;12.97;;
31061;SDS011;17724;53.546;9.974;2023-03-01T19:13:22;21.37;;;15.83;;
31061;SDS011;17724;53.546;9.974;2023-03-01T19:17:23;24.70;;;17.93;;
31061;SDS011;17724;53.546;9.974;2023-03-01T19:21:30;21.20;;;15.03;;
31061;SDS011;17724;53.546;9.974;2023-03-01T19:25:32;25.93;;;18.20;;
31061;SDS011;17724;53.546;9.974;2023-03-01T19:29:33;26.10;;;19.17;;
31061;SDS011;17724;53.546;9.974;2023-03-01T19:33:34;25.60;;;17.77;;
31061;SDS011;17724;53.546;9.974;2023-03-01T19:37:35;26.63;;;19.37;;
31061;SDS011;17724;53.546;9.974;2023-03-01T19:41:36;24.47;;;18.60;;
31061;SDS011;17724;53.546;9.974;2023-03-01T19:45:37;28.23;;;20.63;;
31061;SDS011;17724;53.546;9.974;2023-03-01T19:49:37;25.37;;;18.73;;
31061;SDS011;17724;53.546;9.974;2023-03-01T19:53:38;26.77;;;19.07;;
31061;SDS011;17724;53.546;9.974;2023-03-01T19:57:39;24.57;;;18.10;;
31061;SDS011;17724;53.546;9.974;2023-03-01T20:01:40;29.13;;;22.07;;
31061;SDS011;17724;53.546;9.974;2023-03-01T20:05:43;29.10;;;21.83;;
31061;SDS011;17724;53.546;9.974;2023-03-01T20:09:43;30.20;;;22.50;;
31061;SDS011;17724;53.546;9.974;2023-03-01T20:13:45;26.80;;;19.97;;
31061;SDS011;17724;53.546;9.974;2023-03-01T20:17:45;28.90;;;22.17;;
31061;SDS011;17724;53.546;9.974;2023-03-01T20:21:46;27.20;;;20.70;;
31061;SDS011;17724;53.546;9.974;2023-03-01T20:25:49;29.80;;;21.80;;
31061;SDS011;17724;53.546;9.974;2023-03-01T20:29:50;26.70;;;19.93;;
31061;SDS011;17724;53.546;9.974;2023-03-01T20:33:53;31.70;;;21.07;;
31061;SDS011;17724;53.546;9.974;2023-03-01T20:37:54;30.13;;;23.47;;
31061;SDS011;17724;53.546;9.974;2023-03-01T20:41:55;30.00;;;22.40;;
31061;SDS011;17724;53.546;9.974;2023-03-01T20:45:55;27.83;;;19.60;;
31061;SDS011;17724;53.546;9.974;2023-03-01T20:49:56;28.03;;;21.47;;
31061;SDS011;17724;53.546;9.974;2023-03-01T20:54:00;33.07;;;24.20;;
31061;SDS011;17724;53.546;9.974;2023-03-01T20:58:00;28.37;;;21.63;;
31061;SDS011;17724;53.546;9.974;2023-03-01T21:02:01;27.90;;;19.57;;
31061;SDS011;17724;53.546;9.974;2023-03-01T21:06:02;28.70;;;21.83;;
31061;SDS011;17724;53.546;9.974;2023-03-01T21:10:05;29.30;;;22.60;;
31061;SDS011;17724;53.546;9.974;2023-03-01T21:14:06;27.60;;;18.10;;
31061;SDS011;17724;53.546;9.974;2023-03-01T21:18:06;29.87;;;20.97;;
31061;SDS011;17724;53.546;9.974;2023-03-01T21:22:06;26.40;;;19.43;;
31061;SDS011;17724;53.546;9.974;2023-03-01T21:26:09;29.13;;;21.17;;
31061;SDS011;17724;53.546;9.974;2023-03-01T21:30:10;26.93;;;18.70;;
31061;SDS011;17724;53.546;9.974;2023-03-01T21:34:11;24.70;;;16.70;;
31061;SDS011;17724;53.546;9.974;2023-03-01T21:38:12;27.87;;;21.17;;
31061;SDS011;17724;53.546;9.974;2023-03-01T21:42:12;28.50;;;21.17;;
31061;SDS011;17724;53.546;9.974;2023-03-01T21:46:15;30.20;;;21.00;;
31061;SDS011;17724;53.546;9.974;2023-03-01T21:50:17;26.57;;;19.23;;
31061;SDS011;17724;53.546;9.974;2023-03-01T21:54:18;26.80;;;19.20;;
31061;SDS011;17724;53.546;9.974;2023-03-01T21:58:20;26.63;;;18.57;;
31061;SDS011;17724;53.546;9.974;2023-03-01T22:02:21;25.30;;;18.77;;
31061;SDS011;17724;53.546;9.974;2023-03-01T22:06:22;21.63;;;15.90;;
31061;SDS011;17724;53.546;9.974;2023-03-01T22:10:29;22.37;;;15.77;;
31061;SDS011;17724;53.546;9.974;2023-03-01T22:14:30;23.77;;;17.23;;
31061;SDS011;17724;53.546;9.974;2023-03-01T22:18:31;23.57;;;15.70;;
31061;SDS011;17724;53.546;9.974;2023-03-01T22:22:32;24.97;;;16.37;;
31061;SDS011;17724;53.546;9.974;2023-03-01T22:26:37;23.80;;;17.63;;
31061;SDS011;17724;53.546;9.974;2023-03-01T22:30:39;25.03;;;16.23;;
31061;SDS011;17724;53.546;9.974;2023-03-01T22:34:40;23.40;;;16.33;;
31061;SDS011;17724;53.546;9.974;2023-03-01T22:38:40;22.70;;;15.20;;
31061;SDS011;17724;53.546;9.974;2023-03-01T22:42:41;21.10;;;14.27;;
31061;SDS011;17724;53.546;9.974;2023-03-01T22:46:42;21.90;;;14.43;;
31061;SDS011;17724;53.546;9.974;2023-03-01T22:50:44;22.27;;;13.97;;
31061;SDS011;17724;53.546;9.974;2023-03-01T22:54:45;23.23;;;15.43;;
31061;SDS011;17724;53.546;9.974;2023-03-01T22:58:45;24.50;;;15.23;;
31061;SDS011;17724;53.546;9.974;2023-03-01T23:02:46;23.00;;;15.10;;
31061;SDS011;17724;53.546;9.974;2023-03-01T23:06:47;24.07;;;15.87;;
31061;SDS011;17724;53.546;9.974;2023-03-01T23:10:52;23.07;;;15.47;;
31061;SDS011;17724;53.546;9.974;2023-03-01T23:14:53;23.00;;;15.40;;
31061;SDS011;17724;53.546;9.974;2023-03-01T23:18:54;22.70;;;15.50;;
31061;SDS011;17724;53.546;9.974;2023-03-01T23:22:55;23.17;;;15.93;;
31061;SDS011;17724;53.546;9.974;2023-03-01T23:27:00;21.43;;;14.13;;
31061;SDS011;17724;53.546;9.974;2023-03-01T23:31:03;22.93;;;15.33;;
31061;SDS011;17724;53.546;9.974;2023-03-01T23:35:05;22.80;;;14.93;;
31061;SDS011;17724;53.546;9.974;2023-03-01T23:39:07;19.70;;;13.90;;
31061;SDS011;17724;53.546;9.974;2023-03-01T23:43:08;20.20;;;13.67;;
31061;SDS011;17724;53.546;9.974;2023-03-01T23:47:08;20.10;;;13.73;;
31061;SDS011;17724;53.546;9.974;2023-03-01T23:51:09;20.03;;;13.17;;
31061;SDS011;17724;53.546;9.974;2023-03-01T23:55:10;18.93;;;13.13;;
31061;SDS011;17724;53.546;9.974;2023-03-01T23:59:16;19.77;;;13.17;;
